sensor_id;sensor_type;location;lat;lon;timestamp;pressure;altitude;pressure_sealevel;temperature;humidity
23229;BME280;11783;50.350;6.576;2023-04-07T00:01:14;95988.25;;;7.17;100.00
23229;BME280;11783;50.350;6.576;2023-04-07T00:03:40;95978.03;;;7.09;100.00
23229;BME280;11783;50.350;6.576;2023-04-07T00:06:06;95988.59;;;7.09;100.00
23229;BME280;11783;50.350;6.576;2023-04-07T00:08:31;95982.63;;;7.14;100.00
23229;BME280;11783;50.350;6.576;2023-04-07T00:10:56;95984.22;;;7.15;100.00
23229;BME280;11783;50.350;6.576;2023-04-07T00:13:22;95976.31;;;7.15;100.00
23229;BME280;11783;50.350;6.576;2023-04-07T00:15:48;95978.25;;;7.08;100.00
23229;BME280;11783;50.350;6.576;2023-04-07T00:18:13;95976.19;;;7.10;100.00
23229;BME280;11783;50.350;6.576;2023-04-07T00:20:39;95978.41;;;6.83;100.00
23229;BME280;11783;50.350;6.576;2023-04-07T00:23:05;95981.75;;;6.90;100.00
23229;BME280;11783;50.350;6.576;2023-04-07T00:25:30;95972.13;;;6.95;100.00
23229;BME280;11783;50.350;6.576;2023-04-07T00:27:55;95974.31;;;6.98;100.00
23229;BME280;11783;50.350;6.576;2023-04-07T00:30:21;95982.59;;;7.02;100.00
23229;BME280;11783;50.350;6.576;2023-04-07T00:32:46;95973.03;;;7.01;100.00
23229;BME280;11783;50.350;6.576;2023-04-07T00:35:12;95974.66;;;7.02;100.00
23229;BME280;11783;50.350;6.576;2023-04-07T00:37:37;95963.63;;;7.05;100.00
23229;BME280;11783;50.350;6.576;2023-04-07T00:40:03;95966.88;;;7.07;100.00
23229;BME280;11783;50.350;6.576;2023-04-07T00:42:29;95966.66;;;7.09;100.00
23229;BME280;11783;50.350;6.576;2023-04-07T00:44:54;95967.44;;;7.09;100.00
23229;BME280;11783;50.350;6.576;2023-04-07T00:47:20;95968.59;;;7.13;100.00
23229;BME280;11783;50.350;6.576;2023-04-07T00:49:45;95965.69;;;7.03;100.00
23229;BME280;11783;50.350;6.576;2023-04-07T00:52:11;95963.63;;;7.05;100.00
23229;BME280;11783;50.350;6.576;2023-04-07T00:54:37;95958.50;;;7.10;100.00
23229;BME280;11783;50.350;6.576;2023-04-07T00:57:03;95959.16;;;7.06;100.00
23229;BME280;11783;50.350;6.576;2023-04-07T00:59:29;95958.81;;;7.02;100.00
23229;BME280;11783;50.350;6.576;2023-04-07T01:02:16;95954.91;;;7.05;100.00
23229;BME280;11783;50.350;6.576;2023-04-07T01:07:16;95954.34;;;7.14;100.00
23229;BME280;11783;50.350;6.576;2023-04-07T01:09:48;95948.25;;;7.14;100.00
23229;BME280;11783;50.350;6.576;2023-04-07T01:12:30;95955.97;;;7.15;100.00
23229;BME280;11783;50.350;6.576;2023-04-07T01:15:07;95950.78;;;7.20;100.00
23229;BME280;11783;50.350;6.576;2023-04-07T01:17:34;95947.09;;;7.21;100.00
23229;BME280;11783;50.350;6.576;2023-04-07T01:20:03;95949.09;;;7.26;100.00
23229;BME280;11783;50.350;6.576;2023-04-07T01:22:37;95953.56;;;7.25;100.00
23229;BME280;11783;50.350;6.576;2023-04-07T01:30:31;95945.03;;;7.23;100.00
23229;BME280;11783;50.350;6.576;2023-04-07T01:32:59;95946.88;;;7.23;100.00
23229;BME280;11783;50.350;6.576;2023-04-07T01:35:28;95945.03;;;7.23;100.00
23229;BME280;11783;50.350;6.576;2023-04-07T01:37:55;95946.31;;;7.21;100.00
23229;BME280;11783;50.350;6.576;2023-04-07T01:40:23;95951.13;;;7.24;100.00
23229;BME280;11783;50.350;6.576;2023-04-07T01:42:49;95944.81;;;7.25;100.00
23229;BME280;11783;50.350;6.576;2023-04-07T01:45:17;95950.47;;;7.28;100.00
23229;BME280;11783;50.350;6.576;2023-04-07T01:47:43;95949.44;;;7.29;100.00
23229;BME280;11783;50.350;6.576;2023-04-07T01:50:10;95948.16;;;7.32;100.00
23229;BME280;11783;50.350;6.576;2023-04-07T01:52:37;95944.50;;;7.33;100.00
23229;BME280;11783;50.350;6.576;2023-04-07T01:55:05;95950.00;;;7.32;100.00
23229;BME280;11783;50.350;6.576;2023-04-07T01:57:31;95951.38;;;7.34;100.00
23229;BME280;11783;50.350;6.576;2023-04-07T01:59:56;95953.22;;;7.34;100.00
23229;BME280;11783;50.350;6.576;2023-04-07T02:02:22;95954.25;;;7.33;100.00
23229;BME280;11783;50.350;6.576;2023-04-07T02:04:54;95949.78;;;7.33;100.00
23229;BME280;11783;50.350;6.576;2023-04-07T02:07:25;95951.16;;;7.36;100.00
23229;BME280;11783;50.350;6.576;2023-04-07T02:09:56;95958.28;;;7.35;100.00
23229;BME280;11783;50.350;6.576;2023-04-07T02:12:25;95947.69;;;7.35;100.00
23229;BME280;11783;50.350;6.576;2023-04-07T02:14:52;95956.44;;;7.36;100.00
23229;BME280;11783;50.350;6.576;2023-04-07T02:17:18;95958.28;;;7.35;100.00
23229;BME280;11783;50.350;6.576;2023-04-07T02:19:45;95952.75;;;7.37;100.00
23229;BME280;11783;50.350;6.576;2023-04-07T02:22:11;95956.44;;;7.36;100.00
23229;BME280;11783;50.350;6.576;2023-04-07T02:24:40;95952.53;;;7.38;100.00
23229;BME280;11783;50.350;6.576;2023-04-07T02:27:06;95952.53;;;7.38;100.00
23229;BME280;11783;50.350;6.576;2023-04-07T02:29:32;95952.53;;;7.38;100.00
23229;BME280;11783;50.350;6.576;2023-04-07T02:31:57;95951.50;;;7.39;100.00
23229;BME280;11783;50.350;6.576;2023-04-07T02:34:23;95944.38;;;7.40;100.00
23229;BME280;11783;50.350;6.576;2023-04-07T02:36:48;95949.09;;;7.38;100.00
23229;BME280;11783;50.350;6.576;2023-04-07T02:39:13;95944.81;;;7.37;100.00
23229;BME280;11783;50.350;6.576;2023-04-07T02:41:39;95947.47;;;7.37;100.00
23229;BME280;11783;50.350;6.576;2023-04-07T02:44:04;95941.38;;;7.36;100.00
23229;BME280;11783;50.350;6.576;2023-04-07T02:46:30;95945.06;;;7.35;100.00
23229;BME280;11783;50.350;6.576;2023-04-07T02:48:55;95941.63;;;7.35;100.00
23229;BME280;11783;50.350;6.576;2023-04-07T02:51:20;95942.66;;;7.34;100.00
23229;BME280;11783;50.350;6.576;2023-04-07T02:53:46;95947.69;;;7.35;100.00
23229;BME280;11783;50.350;6.576;2023-04-07T02:56:11;95947.13;;;7.33;100.00
23229;BME280;11783;50.350;6.576;2023-04-07T02:58:37;95950.56;;;7.34;100.00
23229;BME280;11783;50.350;6.576;2023-04-07T03:01:02;95949.78;;;7.33;100.00
23229;BME280;11783;50.350;6.576;2023-04-07T03:03:27;95951.63;;;7.33;100.00
23229;BME280;11783;50.350;6.576;2023-04-07T03:05:53;95948.16;;;7.32;100.00
23229;BME280;11783;50.350;6.576;2023-04-07T03:08:18;95948.16;;;7.32;100.00
23229;BME280;11783;50.350;6.576;2023-04-07T03:10:43;95948.16;;;7.32;100.00
23229;BME280;11783;50.350;6.576;2023-04-07T03:13:09;95946.56;;;7.31;100.00
23229;BME280;11783;50.350;6.576;2023-04-07T03:15:36;95952.41;;;7.33;100.00
23229;BME280;11783;50.350;6.576;2023-04-07T03:18:02;95947.38;;;7.32;100.00
23229;BME280;11783;50.350;6.576;2023-04-07T03:20:27;95949.19;;;7.31;100.00
23229;BME280;11783;50.350;6.576;2023-04-07T03:22:53;95949.19;;;7.31;100.00
23229;BME280;11783;50.350;6.576;2023-04-07T03:25:18;95956.09;;;7.32;100.00
23229;BME280;11783;50.350;6.576;2023-04-07T03:27:43;95948.16;;;7.32;100.00
23229;BME280;11783;50.350;6.576;2023-04-07T03:30:09;95941.28;;;7.31;100.00
23229;BME280;11783;50.350;6.576;2023-04-07T03:32:35;95938.63;;;7.31;100.00
23229;BME280;11783;50.350;6.576;2023-04-07T03:35:00;95948.97;;;7.33;100.00
23229;BME280;11783;50.350;6.576;2023-04-07T03:37:26;95945.28;;;7.34;100.00
23229;BME280;11783;50.350;6.576;2023-04-07T03:39:51;95938.63;;;7.31;100.00
23229;BME280;11783;50.350;6.576;2023-04-07T03:42:16;95943.91;;;7.31;100.00
23229;BME280;11783;50.350;6.576;2023-04-07T03:44:42;95937.03;;;7.30;100.00
23229;BME280;11783;50.350;6.576;2023-04-07T03:47:07;95944.94;;;7.30;100.00
23229;BME280;11783;50.350;6.576;2023-04-07T03:49:33;95934.59;;;7.28;100.00
23229;BME280;11783;50.350;6.576;2023-04-07T03:51:58;95938.41;;;7.33;100.00
23229;BME280;11783;50.350;6.576;2023-04-07T03:54:23;95941.28;;;7.31;100.00
23229;BME280;11783;50.350;6.576;2023-04-07T03:56:49;95945.19;;;7.28;100.00
23229;BME280;11783;50.350;6.576;2023-04-07T03:59:14;95944.94;;;7.30;100.00
23229;BME280;11783;50.350;6.576;2023-04-07T04:01:40;95945.75;;;7.31;100.00
23229;BME280;11783;50.350;6.576;2023-04-07T04:04:05;95950.25;;;7.30;100.00
23229;BME280;11783;50.350;6.576;2023-04-07T04:06:31;95948.41;;;7.31;100.00
23229;BME280;11783;50.350;6.576;2023-04-07T04:08:56;95939.66;;;7.30;100.00
23229;BME280;11783;50.350;6.576;2023-04-07T04:11:22;95936.22;;;7.29;100.00
23229;BME280;11783;50.350;6.576;2023-04-07T04:13:48;95943.13;;;7.31;100.00
23229;BME280;11783;50.350;6.576;2023-04-07T04:16:14;95941.50;;;7.29;100.00
23229;BME280;11783;50.350;6.576;2023-04-07T04:18:39;95945.97;;;7.29;100.00
23229;BME280;11783;50.350;6.576;2023-04-07T04:21:05;95950.47;;;7.28;100.00
23229;BME280;11783;50.350;6.576;2023-04-07T04:23:31;95952.06;;;7.29;100.00
23229;BME280;11783;50.350;6.576;2023-04-07T04:25:56;95961.03;;;7.28;100.00
23229;BME280;11783;50.350;6.576;2023-04-07T04:28:24;95956.78;;;7.27;100.00
23229;BME280;11783;50.350;6.576;2023-04-07T04:30:49;95957.03;;;7.26;100.00
23229;BME280;11783;50.350;6.576;2023-04-07T04:33:15;95959.66;;;7.26;100.00
23229;BME280;11783;50.350;6.576;2023-04-07T04:35:40;95964.94;;;7.26;100.00
23229;BME280;11783;50.350;6.576;2023-04-07T04:38:05;95967.00;;;7.24;100.00
23229;BME280;11783;50.350;6.576;2023-04-07T04:40:31;95970.66;;;7.23;100.00
23229;BME280;11783;50.350;6.576;2023-04-07T04:42:56;95966.19;;;7.23;100.00
23229;BME280;11783;50.350;6.576;2023-04-07T04:45:22;95972.28;;;7.24;100.00
23229;BME280;11783;50.350;6.576;2023-04-07T04:47:47;95975.72;;;7.24;100.00
23229;BME280;11783;50.350;6.576;2023-04-07T04:50:12;95972.06;;;7.25;100.00
23229;BME280;11783;50.350;6.576;2023-04-07T04:52:38;95968.59;;;7.25;100.00
23229;BME280;11783;50.350;6.576;2023-04-07T04:55:04;95975.72;;;7.24;100.00
23229;BME280;11783;50.350;6.576;2023-04-07T04:57:29;95965.38;;;7.23;100.00
23229;BME280;11783;50.350;6.576;2023-04-07T04:59:55;95960.09;;;7.23;100.00
23229;BME280;11783;50.350;6.576;2023-04-07T05:02:20;95973.53;;;7.21;100.00
23229;BME280;11783;50.350;6.576;2023-04-07T05:04:46;95971.69;;;7.22;100.00
23229;BME280;11783;50.350;6.576;2023-04-07T05:07:11;95973.78;;;7.20;100.00
23229;BME280;11783;50.350;6.576;2023-04-07T05:09:36;95979.84;;;7.20;100.00
23229;BME280;11783;50.350;6.576;2023-04-07T05:12:02;95983.53;;;7.19;100.00
23229;BME280;11783;50.350;6.576;2023-04-07T05:14:27;95977.44;;;7.19;100.00
23229;BME280;11783;50.350;6.576;2023-04-07T05:16:53;95981.13;;;7.18;100.00
23229;BME280;11783;50.350;6.576;2023-04-07T05:19:19;95980.31;;;7.17;100.00
23229;BME280;11783;50.350;6.576;2023-04-07T05:21:45;95982.63;;;7.14;100.00
23229;BME280;11783;50.350;6.576;2023-04-07T05:24:10;95981.81;;;7.13;100.00
23229;BME280;11783;50.350;6.576;2023-04-07T05:26:36;95986.88;;;7.15;100.00
23229;BME280;11783;50.350;6.576;2023-04-07T05:29:01;95993.19;;;7.14;100.00
23229;BME280;11783;50.350;6.576;2023-04-07T05:31:26;95987.09;;;7.13;100.00
23229;BME280;11783;50.350;6.576;2023-04-07T05:33:52;95993.41;;;7.12;100.00
23229;BME280;11783;50.350;6.576;2023-04-07T05:36:18;95995.25;;;7.12;100.00
23229;BME280;11783;50.350;6.576;2023-04-07T05:38:43;96000.31;;;7.13;100.00
23229;BME280;11783;50.350;6.576;2023-04-07T05:41:09;95996.06;;;7.12;100.00
23229;BME280;11783;50.350;6.576;2023-04-07T05:43:34;95995.84;;;7.14;100.00
23229;BME280;11783;50.350;6.576;2023-04-07T05:46:00;95999.50;;;7.13;100.00
23229;BME280;11783;50.350;6.576;2023-04-07T05:48:25;95995.84;;;7.14;100.00
23229;BME280;11783;50.350;6.576;2023-04-07T05:50:51;95999.28;;;7.14;100.00
23229;BME280;11783;50.350;6.576;2023-04-07T05:53:16;96002.16;;;7.13;100.00
23229;BME280;11783;50.350;6.576;2023-04-07T05:55:42;95998.47;;;7.14;100.00
23229;BME280;11783;50.350;6.576;2023-04-07T05:58:07;95998.47;;;7.14;100.00
23229;BME280;11783;50.350;6.576;2023-04-07T06:00:33;96005.81;;;7.12;100.00
23229;BME280;11783;50.350;6.576;2023-04-07T06:02:58;96003.75;;;7.14;100.00
23229;BME280;11783;50.350;6.576;2023-04-07T06:05:24;96010.31;;;7.11;100.00
23229;BME280;11783;50.350;6.576;2023-04-07T06:07:50;96005.81;;;7.12;100.00
23229;BME280;11783;50.350;6.576;2023-04-07T06:10:15;96010.31;;;7.11;100.00
23229;BME280;11783;50.350;6.576;2023-04-07T06:12:40;96012.25;;;7.16;100.00
23229;BME280;11783;50.350;6.576;2023-04-07T06:15:06;96017.19;;;7.12;100.00
23229;BME280;11783;50.350;6.576;2023-04-07T06:17:32;96020.06;;;7.11;100.00
23229;BME280;11783;50.350;6.576;2023-04-07T06:19:57;96022.13;;;7.09;100.00
23229;BME280;11783;50.350;6.576;2023-04-07T06:22:22;96031.22;;;7.13;100.00
23229;BME280;11783;50.350;6.576;2023-04-07T06:24:48;96026.16;;;7.11;100.00
23229;BME280;11783;50.350;6.576;2023-04-07T06:27:13;96028.31;;;7.03;100.00
23229;BME280;11783;50.350;6.576;2023-04-07T06:29:38;96032.94;;;7.07;100.00
23229;BME280;11783;50.350;6.576;2023-04-07T06:32:04;96028.47;;;7.08;100.00
23229;BME280;11783;50.350;6.576;2023-04-07T06:34:30;96032.25;;;7.12;100.00
23229;BME280;11783;50.350;6.576;2023-04-07T06:36:56;96034.66;;;7.13;100.00
23229;BME280;11783;50.350;6.576;2023-04-07T06:39:21;96045.59;;;7.17;100.00
23229;BME280;11783;50.350;6.576;2023-04-07T06:41:47;96049.84;;;7.18;100.00
23229;BME280;11783;50.350;6.576;2023-04-07T06:44:12;96053.28;;;7.18;100.00
23229;BME280;11783;50.350;6.576;2023-04-07T06:46:38;96057.66;;;7.13;100.00
23229;BME280;11783;50.350;6.576;2023-04-07T06:49:04;96057.53;;;7.19;100.00
23229;BME280;11783;50.350;6.576;2023-04-07T06:51:29;96057.31;;;7.21;100.00
23229;BME280;11783;50.350;6.576;2023-04-07T06:53:56;96051.22;;;7.20;100.00
23229;BME280;11783;50.350;6.576;2023-04-07T06:56:21;96057.91;;;7.23;100.00
23229;BME280;11783;50.350;6.576;2023-04-07T06:58:47;96058.03;;;7.28;100.00
23229;BME280;11783;50.350;6.576;2023-04-07T07:01:12;96057.59;;;7.31;100.00
23229;BME280;11783;50.350;6.576;2023-04-07T07:03:38;96054.38;;;7.29;100.00
23229;BME280;11783;50.350;6.576;2023-04-07T07:06:03;96065.16;;;7.27;100.00
23229;BME280;11783;50.350;6.576;2023-04-07T07:08:29;96064.38;;;7.27;100.00
23229;BME280;11783;50.350;6.576;2023-04-07T07:10:55;96072.88;;;7.29;100.00
23229;BME280;11783;50.350;6.576;2023-04-07T07:13:23;96073.50;;;6.83;100.00
23229;BME280;11783;50.350;6.576;2023-04-07T07:15:50;96072.34;;;6.60;100.00
23229;BME280;11783;50.350;6.576;2023-04-07T07:18:16;96075.91;;;6.84;100.00
23229;BME280;11783;50.350;6.576;2023-04-07T07:20:41;96080.22;;;6.97;100.00
23229;BME280;11783;50.350;6.576;2023-04-07T07:23:07;96074.41;;;7.07;100.00
23229;BME280;11783;50.350;6.576;2023-04-07T07:25:32;96069.63;;;6.67;100.00
23229;BME280;11783;50.350;6.576;2023-04-07T07:27:58;96077.94;;;6.71;100.00
23229;BME280;11783;50.350;6.576;2023-04-07T07:30:23;96073.13;;;6.79;100.00
23229;BME280;11783;50.350;6.576;2023-04-07T07:32:49;96077.81;;;6.95;100.00
23229;BME280;11783;50.350;6.576;2023-04-07T07:35:15;96088.44;;;7.07;100.00
23229;BME280;11783;50.350;6.576;2023-04-07T07:37:41;96086.38;;;7.09;100.00
23229;BME280;11783;50.350;6.576;2023-04-07T07:40:09;96084.78;;;7.20;100.00
23229;BME280;11783;50.350;6.576;2023-04-07T07:42:35;96093.06;;;7.23;100.00
23229;BME280;11783;50.350;6.576;2023-04-07T07:45:00;96089.38;;;7.24;100.00
23229;BME280;11783;50.350;6.576;2023-04-07T07:47:26;96092.34;;;7.16;100.00
23229;BME280;11783;50.350;6.576;2023-04-07T07:49:51;96102.75;;;7.29;100.00
23229;BME280;11783;50.350;6.576;2023-04-07T07:52:17;96097.00;;;7.33;100.00
23229;BME280;11783;50.350;6.576;2023-04-07T07:54:42;96105.75;;;7.33;100.00
23229;BME280;11783;50.350;6.576;2023-04-07T07:57:07;96098.16;;;7.37;100.00
23229;BME280;11783;50.350;6.576;2023-04-07T07:59:33;96093.91;;;7.36;100.00
23229;BME280;11783;50.350;6.576;2023-04-07T08:01:58;96101.75;;;7.42;100.00
23229;BME280;11783;50.350;6.576;2023-04-07T08:04:24;96099.69;;;7.44;100.00
23229;BME280;11783;50.350;6.576;2023-04-07T08:06:50;96100.81;;;7.37;100.00
23229;BME280;11783;50.350;6.576;2023-04-07T08:09:17;96100.13;;;7.41;100.00
23229;BME280;11783;50.350;6.576;2023-04-07T08:11:42;96111.28;;;7.43;100.00
23229;BME280;11783;50.350;6.576;2023-04-07T08:14:08;96105.69;;;7.51;100.00
23229;BME280;11783;50.350;6.576;2023-04-07T08:16:33;96105.56;;;7.58;100.00
23229;BME280;11783;50.350;6.576;2023-04-07T08:18:59;96105.63;;;7.40;100.00
23229;BME280;11783;50.350;6.576;2023-04-07T08:21:24;96104.88;;;7.09;100.00
23229;BME280;11783;50.350;6.576;2023-04-07T08:23:52;96098.34;;;6.93;100.00
23229;BME280;11783;50.350;6.576;2023-04-07T08:26:18;96101.63;;;6.59;100.00
23229;BME280;11783;50.350;6.576;2023-04-07T08:28:43;96091.06;;;6.59;100.00
23229;BME280;11783;50.350;6.576;2023-04-07T08:31:09;96098.09;;;6.47;100.00
23229;BME280;11783;50.350;6.576;2023-04-07T08:33:34;96102.66;;;6.58;100.00
23229;BME280;11783;50.350;6.576;2023-04-07T08:36:00;96098.88;;;6.65;100.00
23229;BME280;11783;50.350;6.576;2023-04-07T08:38:25;96103.13;;;6.85;100.00
23229;BME280;11783;50.350;6.576;2023-04-07T08:40:57;96104.25;;;6.77;100.00
23229;BME280;11783;50.350;6.576;2023-04-07T08:43:25;96106.56;;;6.85;100.00
23229;BME280;11783;50.350;6.576;2023-04-07T08:45:51;96101.41;;;7.09;100.00
23229;BME280;11783;50.350;6.576;2023-04-07T08:48:22;96112.41;;;7.06;100.00
23229;BME280;11783;50.350;6.576;2023-04-07T08:50:48;96113.41;;;7.23;100.00
23229;BME280;11783;50.350;6.576;2023-04-07T08:53:21;96107.19;;;7.47;100.00
23229;BME280;11783;50.350;6.576;2023-04-07T08:55:47;96108.75;;;7.37;100.00
23229;BME280;11783;50.350;6.576;2023-04-07T08:58:13;96110.47;;;7.31;100.00
23229;BME280;11783;50.350;6.576;2023-04-07T09:00:42;96114.53;;;7.57;100.00
23229;BME280;11783;50.350;6.576;2023-04-07T09:03:10;96117.56;;;7.72;100.00
23229;BME280;11783;50.350;6.576;2023-04-07T09:05:36;96121.97;;;7.90;100.00
23229;BME280;11783;50.350;6.576;2023-04-07T09:08:02;96123.19;;;7.64;100.00
23229;BME280;11783;50.350;6.576;2023-04-07T09:10:28;96129.94;;;7.48;100.00
23229;BME280;11783;50.350;6.576;2023-04-07T09:12:53;96133.72;;;7.82;100.00
23229;BME280;11783;50.350;6.576;2023-04-07T09:15:19;96135.53;;;7.82;100.00
23229;BME280;11783;50.350;6.576;2023-04-07T09:17:45;96137.69;;;7.73;100.00
23229;BME280;11783;50.350;6.576;2023-04-07T09:20:11;96133.50;;;7.54;100.00
23229;BME280;11783;50.350;6.576;2023-04-07T09:22:40;96140.75;;;7.17;100.00
23229;BME280;11783;50.350;6.576;2023-04-07T09:28:02;96144.84;;;7.43;100.00
23229;BME280;11783;50.350;6.576;2023-04-07T09:30:29;96144.84;;;7.43;100.00
23229;BME280;11783;50.350;6.576;2023-04-07T09:32:55;96150.38;;;7.41;100.00
23229;BME280;11783;50.350;6.576;2023-04-07T09:35:21;96150.75;;;7.56;100.00
23229;BME280;11783;50.350;6.576;2023-04-07T09:38:08;96148.78;;;7.94;100.00
23229;BME280;11783;50.350;6.576;2023-04-07T09:40:34;96145.72;;;8.20;100.00
23229;BME280;11783;50.350;6.576;2023-04-07T09:43:02;96150.94;;;8.38;100.00
23229;BME280;11783;50.350;6.576;2023-04-07T09:45:28;96148.03;;;8.40;100.00
23229;BME280;11783;50.350;6.576;2023-04-07T09:47:56;96152.84;;;8.55;100.00
23229;BME280;11783;50.350;6.576;2023-04-07T09:50:35;96153.44;;;8.57;100.00
23229;BME280;11783;50.350;6.576;2023-04-07T09:53:01;96160.78;;;8.66;100.00
23229;BME280;11783;50.350;6.576;2023-04-07T09:55:29;96161.41;;;8.57;100.00
23229;BME280;11783;50.350;6.576;2023-04-07T09:57:55;96163.44;;;8.66;100.00
23229;BME280;11783;50.350;6.576;2023-04-07T10:00:21;96160.66;;;8.85;100.00
23229;BME280;11783;50.350;6.576;2023-04-07T10:02:46;96167.13;;;8.30;100.00
23229;BME280;11783;50.350;6.576;2023-04-07T10:05:13;96168.78;;;8.43;100.00
23229;BME280;11783;50.350;6.576;2023-04-07T10:07:39;96172.00;;;8.57;100.00
23229;BME280;11783;50.350;6.576;2023-04-07T10:10:05;96171.88;;;8.40;100.00
23229;BME280;11783;50.350;6.576;2023-04-07T10:12:33;96164.94;;;8.50;100.00
23229;BME280;11783;50.350;6.576;2023-04-07T10:15:01;96171.72;;;8.70;100.00
23229;BME280;11783;50.350;6.576;2023-04-07T10:17:27;96176.34;;;8.63;100.00
23229;BME280;11783;50.350;6.576;2023-04-07T10:19:53;96176.47;;;8.79;100.00
23229;BME280;11783;50.350;6.576;2023-04-07T10:22:21;96168.13;;;8.99;100.00
23229;BME280;11783;50.350;6.576;2023-04-07T10:25:05;96171.97;;;8.80;100.00
23229;BME280;11783;50.350;6.576;2023-04-07T10:27:48;96180.72;;;8.69;100.00
23229;BME280;11783;50.350;6.576;2023-04-07T10:30:29;96185.19;;;8.92;100.00
23229;BME280;11783;50.350;6.576;2023-04-07T10:32:56;96176.97;;;9.05;100.00
23229;BME280;11783;50.350;6.576;2023-04-07T10:35:22;96180.88;;;9.14;100.00
23229;BME280;11783;50.350;6.576;2023-04-07T10:40:31;96184.47;;;9.08;100.00
23229;BME280;11783;50.350;6.576;2023-04-07T10:42:57;96187.56;;;9.17;100.00
23229;BME280;11783;50.350;6.576;2023-04-07T10:48:11;96196.59;;;7.80;100.00
23229;BME280;11783;50.350;6.576;2023-04-07T10:50:37;96196.97;;;7.96;100.00
23229;BME280;11783;50.350;6.576;2023-04-07T10:53:13;96195.53;;;7.70;100.00
23229;BME280;11783;50.350;6.576;2023-04-07T10:55:45;96204.69;;;7.55;100.00
23229;BME280;11783;50.350;6.576;2023-04-07T10:58:26;96205.94;;;7.53;100.00
23229;BME280;11783;50.350;6.576;2023-04-07T11:03:35;96210.16;;;7.42;100.00
23229;BME280;11783;50.350;6.576;2023-04-07T11:06:05;96204.69;;;7.55;100.00
23229;BME280;11783;50.350;6.576;2023-04-07T11:08:40;96215.63;;;7.29;100.00
23229;BME280;11783;50.350;6.576;2023-04-07T11:11:07;96204.56;;;7.50;100.00
23229;BME280;11783;50.350;6.576;2023-04-07T11:13:47;96211.81;;;7.55;100.00
23229;BME280;11783;50.350;6.576;2023-04-07T11:16:13;96210.25;;;7.66;100.00
23229;BME280;11783;50.350;6.576;2023-04-07T11:18:40;96217.81;;;7.62;100.00
23229;BME280;11783;50.350;6.576;2023-04-07T11:21:06;96210.03;;;7.67;100.00
23229;BME280;11783;50.350;6.576;2023-04-07T11:23:42;96217.97;;;7.67;100.00
23229;BME280;11783;50.350;6.576;2023-04-07T11:26:09;96218.09;;;7.72;99.17
23229;BME280;11783;50.350;6.576;2023-04-07T11:28:45;96215.13;;;7.80;100.00
23229;BME280;11783;50.350;6.576;2023-04-07T11:31:11;96218.53;;;7.69;100.00
23229;BME280;11783;50.350;6.576;2023-04-07T11:33:38;96217.34;;;7.53;100.00
23229;BME280;11783;50.350;6.576;2023-04-07T11:36:05;96215.38;;;7.49;100.00
23229;BME280;11783;50.350;6.576;2023-04-07T11:38:35;96216.47;;;7.41;100.00
23229;BME280;11783;50.350;6.576;2023-04-07T11:41:14;96218.00;;;7.49;100.00
23229;BME280;11783;50.350;6.576;2023-04-07T11:43:40;96215.81;;;7.46;100.00
23229;BME280;11783;50.350;6.576;2023-04-07T11:46:09;96215.38;;;7.49;100.00
23229;BME280;11783;50.350;6.576;2023-04-07T11:48:37;96220.66;;;7.49;100.00
23229;BME280;11783;50.350;6.576;2023-04-07T11:51:03;96228.94;;;7.52;100.00
23229;BME280;11783;50.350;6.576;2023-04-07T11:53:30;96234.41;;;7.69;100.00
23229;BME280;11783;50.350;6.576;2023-04-07T11:56:03;96222.72;;;7.47;100.00
23229;BME280;11783;50.350;6.576;2023-04-07T11:58:30;96228.03;;;7.58;100.00
23229;BME280;11783;50.350;6.576;2023-04-07T12:01:04;96227.94;;;7.95;100.00
23229;BME280;11783;50.350;6.576;2023-04-07T12:03:34;96235.63;;;7.85;100.00
23229;BME280;11783;50.350;6.576;2023-04-07T12:06:00;96237.53;;;7.78;100.00
23229;BME280;11783;50.350;6.576;2023-04-07T12:08:39;96236.13;;;7.64;100.00
23229;BME280;11783;50.350;6.576;2023-04-07T12:11:05;96236.44;;;7.55;100.00
23229;BME280;11783;50.350;6.576;2023-04-07T12:13:31;96239.34;;;7.66;100.00
23229;BME280;11783;50.350;6.576;2023-04-07T12:16:00;96237.22;;;7.56;100.00
23229;BME280;11783;50.350;6.576;2023-04-07T12:18:27;96234.34;;;7.57;100.00
23229;BME280;11783;50.350;6.576;2023-04-07T12:20:52;96237.81;;;7.58;100.00
23229;BME280;11783;50.350;6.576;2023-04-07T12:23:18;96244.25;;;7.62;100.00
23229;BME280;11783;50.350;6.576;2023-04-07T12:25:43;96245.53;;;7.59;100.00
23229;BME280;11783;50.350;6.576;2023-04-07T12:28:08;96242.47;;;7.74;100.00
23229;BME280;11783;50.350;6.576;2023-04-07T12:30:34;96242.59;;;7.79;100.00
23229;BME280;11783;50.350;6.576;2023-04-07T12:33:00;96250.69;;;7.84;100.00
23229;BME280;11783;50.350;6.576;2023-04-07T12:35:27;96252.09;;;7.99;100.00
23229;BME280;11783;50.350;6.576;2023-04-07T12:37:53;96254.09;;;8.03;100.00
23229;BME280;11783;50.350;6.576;2023-04-07T12:40:18;96259.69;;;7.95;100.00
23229;BME280;11783;50.350;6.576;2023-04-07T12:42:44;96252.31;;;7.85;100.00
23229;BME280;11783;50.350;6.576;2023-04-07T12:45:09;96246.69;;;7.94;100.00
23229;BME280;11783;50.350;6.576;2023-04-07T12:47:35;96252.03;;;8.05;100.00
23229;BME280;11783;50.350;6.576;2023-04-07T12:50:00;96261.81;;;8.05;100.00
23229;BME280;11783;50.350;6.576;2023-04-07T12:52:26;96253.25;;;7.91;100.00
23229;BME280;11783;50.350;6.576;2023-04-07T12:54:51;96255.63;;;8.23;100.00
23229;BME280;11783;50.350;6.576;2023-04-07T12:57:17;96266.88;;;8.18;100.00
23229;BME280;11783;50.350;6.576;2023-04-07T12:59:43;96258.81;;;8.13;100.00
23229;BME280;11783;50.350;6.576;2023-04-07T13:02:09;96266.22;;;8.23;100.00
23229;BME280;11783;50.350;6.576;2023-04-07T13:04:35;96261.97;;;8.22;100.00
23229;BME280;11783;50.350;6.576;2023-04-07T13:07:05;96265.31;;;8.29;100.00
23229;BME280;11783;50.350;6.576;2023-04-07T13:09:32;96263.19;;;8.37;100.00
23229;BME280;11783;50.350;6.576;2023-04-07T13:11:58;96262.88;;;8.27;100.00
23229;BME280;11783;50.350;6.576;2023-04-07T13:14:23;96265.25;;;8.47;100.00
23229;BME280;11783;50.350;6.576;2023-04-07T13:17:01;96264.69;;;8.45;100.00